Time;durP1;ratioP1;P1;durP2;ratioP2;P2;SDS_P1;SDS_P2;PMS_P1;PMS_P2;Temp;Humidity;BMP_temperature;BMP_pressure;BME280_temperature;BME280_humidity;BME280_pressure;Samples;Min_cycle;Max_cycle;Signal;HPM_P1;HPM_P2
2023/12/08 00:00:10;;;;;;;9.68;7.05;;;;;;;-0.25;100.00;93023.75;4998762;28;20512;-80
2023/12/08 00:02:38;;;;;;;9.18;7.18;;;;;;;-0.30;100.00;93025.00;4988679;28;20508;-80
2023/12/08 00:05:07;;;;;;;8.68;7.25;;;;;;;-0.45;100.00;93026.47;4992733;28;20046;-79
2023/12/08 00:07:34;;;;;;;9.20;6.70;;;;;;;-0.79;100.00;92974.19;5001947;28;20050;-79
2023/12/08 00:10:01;;;;;;;10.40;7.82;;;;;;;-0.49;100.00;93008.31;4991918;28;20059;-79
2023/12/08 00:12:28;;;;;;;9.00;7.35;;;;;;;-0.40;100.00;92996.53;4987927;28;20060;-79
2023/12/08 00:14:55;;;;;;;8.55;6.68;;;;;;;-0.57;100.00;92990.59;4990431;28;20054;-78
2023/12/08 00:17:22;;;;;;;10.35;8.10;;;;;;;-0.29;100.00;93025.78;4988032;28;20439;-79
2023/12/08 00:19:49;;;;;;;9.50;7.40;;;;;;;-0.51;100.00;93006.88;4990255;28;20389;-79
2023/12/08 00:22:17;;;;;;;10.50;7.30;;;;;;;-0.35;100.00;93014.56;4988344;28;20133;-79
2023/12/08 00:24:44;;;;;;;9.40;7.07;;;;;;;-0.56;100.00;92982.88;4987897;28;20052;-79
2023/12/08 00:27:11;;;;;;;9.18;7.60;;;;;;;-0.35;100.00;93026.38;4991885;28;20523;-79
2023/12/08 00:29:38;;;;;;;9.18;7.47;;;;;;;-0.34;100.00;93027.97;4988258;28;20313;-79
2023/12/08 00:32:06;;;;;;;10.32;7.65;;;;;;;-0.36;100.00;93024.81;4987623;28;20082;-78
2023/12/08 00:34:34;;;;;;;10.13;7.38;;;;;;;-0.31;100.00;93020.91;5005332;28;20049;-79
2023/12/08 00:37:01;;;;;;;9.57;7.45;;;;;;;-0.51;100.00;93001.84;4996976;28;20049;-78
2023/12/08 00:39:29;;;;;;;9.82;7.70;;;;;;;-0.31;100.00;93025.94;4995028;28;20145;-79
2023/12/08 00:41:56;;;;;;;10.30;7.78;;;;;;;-0.26;100.00;93022.97;4990047;28;20051;-79
2023/12/08 00:44:23;;;;;;;10.38;8.05;;;;;;;-0.31;100.00;93020.91;4988123;28;20463;-78
2023/12/08 00:46:50;;;;;;;9.82;7.50;;;;;;;-0.39;100.00;93025.88;4987497;28;20149;-78
2023/12/08 00:49:17;;;;;;;10.68;7.55;;;;;;;-0.43;100.00;93007.72;4990070;28;20058;-79
2023/12/08 00:51:44;;;;;;;11.02;8.95;;;;;;;-0.29;100.00;93026.59;4988331;28;20142;-79
2023/12/08 00:54:11;;;;;;;11.63;8.95;;;;;;;-0.40;100.00;93019.25;4989740;28;20129;-78
2023/12/08 00:56:39;;;;;;;9.63;8.40;;;;;;;-0.33;100.00;93029.56;4992807;28;20052;-79
2023/12/08 00:59:06;;;;;;;11.35;9.10;;;;;;;-0.31;100.00;93032.72;4988066;28;20104;-79
2023/12/08 01:01:33;;;;;;;11.40;8.80;;;;;;;-0.29;100.00;93038.41;4987503;28;20054;-79
2023/12/08 01:04:00;;;;;;;11.35;8.88;;;;;;;-0.32;100.00;93036.97;4989972;28;20096;-79
2023/12/08 01:06:27;;;;;;;11.95;9.13;;;;;;;-0.35;100.00;93037.28;4991359;28;20060;-79
2023/12/08 01:08:54;;;;;;;11.57;9.60;;;;;;;-0.33;100.00;93035.38;4991233;28;20050;-78
2023/12/08 01:11:21;;;;;;;13.25;9.15;;;;;;;-0.32;100.00;93033.66;4990974;28;20133;-79
2023/12/08 01:13:50;;;;;;;12.77;10.32;;;;;;;-0.27;100.00;93032.28;4995922;28;20272;-81
2023/12/08 01:16:16;;;;;;;13.93;10.48;;;;;;;-0.29;100.00;93030.84;4990313;28;20143;-78
2023/12/08 01:18:43;;;;;;;12.48;10.13;;;;;;;-0.24;100.00;93032.94;5001594;28;20046;-79
2023/12/08 01:21:10;;;;;;;12.10;9.60;;;;;;;-0.23;100.00;93040.34;4992002;28;20050;-80
2023/12/08 01:23:37;;;;;;;11.98;9.63;;;;;;;-0.30;100.00;93030.06;4991496;28;20427;-79
2023/12/08 01:26:06;;;;;;;12.60;10.07;;;;;;;-0.27;100.00;93039.84;4991149;28;20134;-81
2023/12/08 01:28:33;;;;;;;13.07;10.07;;;;;;;-0.17;100.00;93039.78;5001501;28;20042;-80
2023/12/08 01:31:03;;;;;;;15.48;10.95;;;;;;;-0.27;100.00;93026.44;4991180;28;20064;-80
2023/12/08 01:33:30;;;;;;;15.65;11.75;;;;;;;-0.24;100.00;93032.94;4990988;28;20054;-80
2023/12/08 01:35:56;;;;;;;13.88;10.73;;;;;;;-0.31;100.00;93008.28;4990369;28;20129;-80
2023/12/08 01:38:24;;;;;;;13.20;10.27;;;;;;;-0.24;100.00;93032.94;4991575;28;20492;-80
2023/12/08 01:40:51;;;;;;;12.02;10.07;;;;;;;-0.24;100.00;93031.19;4991977;28;20046;-79
2023/12/08 01:43:18;;;;;;;13.57;10.18;;;;;;;-0.08;100.00;93035.56;4990420;28;20054;-80
2023/12/08 01:45:46;;;;;;;13.25;9.80;;;;;;;-0.16;100.00;93030.44;4990450;28;20137;-80
2023/12/08 01:51:01;;;;;;;11.45;9.10;;;;;;;0.00;100.00;93019.66;4990832;28;20062;-79
2023/12/08 01:53:28;;;;;;;11.27;8.98;;;;;;;0.06;100.00;93034.22;4990483;28;20123;-79
2023/12/08 01:55:55;;;;;;;11.38;9.50;;;;;;;0.04;100.00;93032.78;4996000;28;20050;-80
2023/12/08 01:58:22;;;;;;;12.82;9.85;;;;;;;0.21;100.00;93036.16;4990211;28;20047;-79
2023/12/08 02:00:50;;;;;;;11.38;8.73;;;;;;;0.30;100.00;93029.41;4990070;28;20049;-79
2023/12/08 02:03:18;;;;;;;21.70;14.20;;;;;;;0.12;100.00;93008.34;4990618;28;21189;-79
2023/12/08 02:05:48;;;;;;;13.82;9.75;;;;;;;0.36;100.00;93032.13;4998358;28;20132;-79
2023/12/08 02:08:15;;;;;;;16.60;11.75;;;;;;;0.58;100.00;93039.31;4995566;28;20061;-80
2023/12/08 02:10:43;;;;;;;17.25;12.60;;;;;;;0.75;100.00;93038.44;4995917;28;20134;-80
2023/12/08 02:13:11;;;;;;;12.88;9.90;;;;;;;0.87;100.00;93048.25;4994109;28;20088;-79
2023/12/08 02:15:38;;;;;;;13.45;10.55;;;;;;;0.98;100.00;93053.06;4989714;28;20051;-79
2023/12/08 02:18:07;;;;;;;17.13;12.13;;;;;;;1.14;100.00;93062.41;4992757;28;20730;-79
2023/12/08 02:20:35;;;;;;;19.77;14.43;;;;;;;1.29;100.00;93054.22;4993032;28;20061;-79
2023/12/08 02:23:06;;;;;;;18.60;13.63;;;;;;;1.39;100.00;93057.38;4998185;28;20054;-79
2023/12/08 02:25:34;;;;;;;23.42;15.88;;;;;;;1.53;100.00;93050.13;4992942;28;20046;-80
2023/12/08 02:28:04;;;;;;;16.58;12.18;;;;;;;1.52;100.00;93051.06;4989595;28;20050;-80
2023/12/08 02:30:31;;;;;;;20.17;13.32;;;;;;;1.44;100.00;93029.84;5001122;28;20056;-81
2023/12/08 02:33:04;;;;;;;35.22;22.95;;;;;;;1.45;100.00;93054.19;4998182;28;20050;-79
2023/12/08 02:35:36;;;;;;;16.27;11.05;;;;;;;1.35;100.00;93055.31;4989369;28;20066;-79
2023/12/08 02:38:07;;;;;;;15.25;10.77;;;;;;;1.41;100.00;93050.41;4993103;28;20328;-79
2023/12/08 02:40:36;;;;;;;13.38;9.65;;;;;;;1.22;100.00;93060.81;5007821;28;20049;-79
2023/12/08 02:43:04;;;;;;;11.35;7.97;;;;;;;1.14;100.00;93054.81;5006972;28;20057;-80
2023/12/08 02:45:30;;;;;;;12.07;8.85;;;;;;;0.91;100.00;93052.88;5004894;28;20046;-79
2023/12/08 02:47:56;;;;;;;9.75;8.10;;;;;;;0.73;100.00;93059.75;4989626;28;20054;-80
2023/12/08 02:50:26;;;;;;;9.05;7.50;;;;;;;0.45;100.00;93059.97;4995624;28;20056;-80
2023/12/08 02:52:53;;;;;;;11.15;8.93;;;;;;;0.69;100.00;93050.91;4999515;28;20049;-80
2023/12/08 02:55:20;;;;;;;13.25;10.60;;;;;;;0.67;100.00;93056.13;4993858;28;20054;-79
2023/12/08 02:57:49;;;;;;;10.48;8.95;;;;;;;0.70;100.00;93060.88;4990409;28;20073;-79
2023/12/08 03:00:16;;;;;;;12.40;9.68;;;;;;;0.45;100.00;93049.84;4993753;28;20052;-78
2023/12/08 03:02:43;;;;;;;8.70;7.10;;;;;;;0.23;100.00;93065.41;4994609;28;20495;-80
2023/12/08 03:05:11;;;;;;;10.65;8.80;;;;;;;0.38;100.00;93057.25;5002028;28;20806;-80
2023/12/08 03:07:37;;;;;;;10.43;8.25;;;;;;;0.45;100.00;93055.72;4989644;28;20450;-79
2023/12/08 03:10:05;;;;;;;10.90;8.43;;;;;;;0.39;100.00;93059.66;4989812;28;20046;-79
2023/12/08 03:12:32;;;;;;;9.35;7.90;;;;;;;0.24;100.00;93044.25;4989002;28;20054;-81
2023/12/08 03:15:01;;;;;;;10.50;8.50;;;;;;;0.24;100.00;93048.50;4993554;28;20137;-82
2023/12/08 03:17:28;;;;;;;12.48;9.63;;;;;;;0.24;100.00;93053.56;4989032;28;20139;-81
2023/12/08 03:19:54;;;;;;;10.38;8.90;;;;;;;0.12;100.00;93036.16;4988945;28;20133;-81
2023/12/08 03:22:21;;;;;;;9.50;7.65;;;;;;;0.07;100.00;93052.66;4990758;28;20057;-82
2023/12/08 03:24:48;;;;;;;10.95;8.73;;;;;;;0.04;100.00;93038.59;4988556;28;20149;-82
2023/12/08 03:27:15;;;;;;;11.13;9.23;;;;;;;0.16;100.00;93056.84;4988844;28;20507;-82
2023/12/08 03:29:42;;;;;;;11.40;8.93;;;;;;;-0.16;100.00;93025.41;4993209;28;20438;-83
2023/12/08 03:32:11;;;;;;;10.70;8.93;;;;;;;0.03;100.00;93053.91;4988362;28;20077;-82
2023/12/08 03:34:38;;;;;;;9.43;8.18;;;;;;;0.05;100.00;93044.47;4988509;28;20499;-82
2023/12/08 03:37:05;;;;;;;11.60;8.38;;;;;;;-0.12;100.00;93020.84;4990264;28;20133;-82
2023/12/08 03:39:32;;;;;;;11.60;9.13;;;;;;;-0.03;100.00;93050.25;4988112;28;20054;-82
2023/12/08 03:41:58;;;;;;;11.13;9.30;;;;;;;-0.28;100.00;92989.50;4990432;28;20164;-81
2023/12/08 03:44:25;;;;;;;11.82;9.30;;;;;;;0.11;100.00;93039.63;4988393;28;20506;-81
2023/12/08 03:46:52;;;;;;;13.70;10.40;;;;;;;0.23;100.00;93045.19;4988449;28;20132;-81
2023/12/08 03:49:20;;;;;;;12.57;10.55;;;;;;;-0.02;100.00;92986.97;4990679;28;20054;-81
2023/12/08 03:51:47;;;;;;;13.38;10.93;;;;;;;0.22;100.00;93002.38;4988308;28;20060;-81
2023/12/08 03:54:14;;;;;;;12.25;10.30;;;;;;;0.28;100.00;93037.19;4991899;28;20050;-83
2023/12/08 03:56:41;;;;;;;13.77;11.73;;;;;;;0.42;100.00;93038.34;4988453;28;20060;-78
2023/12/08 03:59:08;;;;;;;14.35;11.82;;;;;;;0.52;100.00;93031.41;4988217;28;20048;-79
2023/12/08 04:01:35;;;;;;;12.60;10.48;;;;;;;0.48;100.00;93027.63;4996046;28;20057;-78
2023/12/08 04:04:02;;;;;;;10.07;8.45;;;;;;;0.34;100.00;93020.59;4990267;28;20054;-80
2023/12/08 04:06:30;;;;;;;10.93;8.35;;;;;;;0.06;100.00;93003.09;4987631;28;20056;-80
2023/12/08 04:08:57;;;;;;;12.60;9.27;;;;;;;0.26;100.00;93024.69;4991548;28;20061;-79
2023/12/08 04:11:24;;;;;;;11.48;8.85;;;;;;;0.28;100.00;93019.50;4988914;28;20133;-79
2023/12/08 04:13:51;;;;;;;10.90;8.63;;;;;;;0.17;100.00;93010.41;4989780;28;20503;-79
2023/12/08 04:16:18;;;;;;;13.23;9.73;;;;;;;0.28;100.00;93003.53;4990007;28;20049;-79
2023/12/08 04:18:45;;;;;;;13.05;9.98;;;;;;;0.30;100.00;93019.31;4993385;28;20085;-79
2023/12/08 04:21:17;;;;;;;15.10;10.48;;;;;;;0.53;100.00;93017.03;4989980;28;20054;-79
2023/12/08 04:23:46;;;;;;;11.70;8.90;;;;;;;0.32;100.00;93013.16;4996438;28;20042;-79
2023/12/08 04:26:13;;;;;;;12.60;9.93;;;;;;;0.24;100.00;92998.75;4998481;28;20061;-80
2023/12/08 04:28:41;;;;;;;13.07;10.20;;;;;;;0.53;100.00;93012.78;4998633;28;20057;-80
2023/12/08 04:31:08;;;;;;;16.90;15.10;;;;;;;0.59;100.00;93006.31;4988078;28;20056;-79
2023/12/08 04:33:35;;;;;;;18.60;15.90;;;;;;;0.69;100.00;93018.81;4988577;28;20065;-80
2023/12/08 04:36:02;;;;;;;13.77;11.60;;;;;;;0.69;100.00;92988.47;4988557;28;20086;-79
2023/12/08 04:38:29;;;;;;;14.93;12.70;;;;;;;0.95;100.00;93017.94;4988403;28;20046;-79
2023/12/08 04:40:57;;;;;;;13.10;11.63;;;;;;;1.06;100.00;93015.13;4987889;28;20052;-80
2023/12/08 04:43:24;;;;;;;13.88;11.23;;;;;;;0.99;100.00;93001.50;4988988;28;20057;-79
2023/12/08 04:45:51;;;;;;;15.55;11.52;;;;;;;1.10;100.00;93022.41;4993121;28;20047;-79
2023/12/08 04:48:18;;;;;;;18.48;13.90;;;;;;;1.26;100.00;93036.81;4988219;28;20058;-79
2023/12/08 04:50:46;;;;;;;14.52;11.18;;;;;;;1.31;100.00;93020.19;4988468;28;20047;-78
2023/12/08 04:53:13;;;;;;;12.13;9.38;;;;;;;1.43;100.00;93024.97;4996565;28;20072;-78
2023/12/08 04:55:40;;;;;;;11.10;9.23;;;;;;;1.40;100.00;93032.84;4992943;28;20054;-78
2023/12/08 04:58:08;;;;;;;12.70;9.73;;;;;;;1.45;100.00;93031.41;4994813;28;20380;-77
2023/12/08 05:00:35;;;;;;;8.10;6.63;;;;;;;1.16;100.00;93034.44;4996687;28;20471;-78
2023/12/08 05:03:02;;;;;;;23.88;16.17;;;;;;;1.22;100.00;93011.03;4994505;28;20086;-78
2023/12/08 05:05:29;;;;;;;13.43;9.85;;;;;;;1.29;100.00;93004.38;4994380;28;20488;-78
2023/12/08 05:07:56;;;;;;;13.20;10.60;;;;;;;1.63;100.00;93043.16;4991756;28;20415;-78
2023/12/08 05:10:23;;;;;;;15.32;11.63;;;;;;;1.58;100.00;93033.47;4992118;28;20050;-78
2023/12/08 05:12:50;;;;;;;14.35;10.57;;;;;;;1.71;100.00;93047.44;5004869;28;20137;-78
2023/12/08 05:15:19;;;;;;;12.90;10.00;;;;;;;1.78;100.00;93045.03;4999584;28;20054;-81
2023/12/08 05:17:46;;;;;;;13.48;10.00;;;;;;;1.79;100.00;93046.59;4991417;28;20848;-79
2023/12/08 05:20:13;;;;;;;10.48;8.07;;;;;;;1.77;100.00;93049.31;4999379;28;20061;-79
2023/12/08 05:22:40;;;;;;;11.45;8.65;;;;;;;1.59;100.00;93024.94;4991098;28;20046;-80
2023/12/08 05:25:09;;;;;;;9.90;8.32;;;;;;;1.70;100.00;93043.28;4994794;28;20054;-79
2023/12/08 05:27:36;;;;;;;13.18;10.52;;;;;;;1.72;100.00;93044.72;4993548;28;20050;-78
2023/12/08 05:30:03;;;;;;;10.48;8.23;;;;;;;1.71;100.00;93048.19;5002358;28;20065;-78
2023/12/08 05:32:31;;;;;;;11.07;8.55;;;;;;;1.65;100.00;93038.72;4990982;28;20046;-78
2023/12/08 05:34:58;;;;;;;10.27;8.02;;;;;;;1.57;100.00;93042.03;4991373;28;20062;-78
2023/12/08 05:37:25;;;;;;;9.07;6.93;;;;;;;1.09;100.00;93057.03;4990636;28;20055;-78
2023/12/08 05:39:52;;;;;;;9.02;6.45;;;;;;;0.39;100.00;93036.09;4991664;28;20074;-79
2023/12/08 05:42:20;;;;;;;12.38;7.95;;;;;;;0.46;100.00;93054.00;4990725;28;20054;-78
2023/12/08 05:44:47;;;;;;;11.10;9.07;;;;;;;0.71;100.00;93054.88;4991607;28;20060;-78
2023/12/08 05:47:14;;;;;;;11.77;8.55;;;;;;;0.69;100.00;93061.03;5003136;28;20052;-78
2023/12/08 05:49:42;;;;;;;13.57;9.10;;;;;;;0.33;100.00;93046.81;4992175;28;20060;-77
2023/12/08 05:52:10;;;;;;;12.45;8.73;;;;;;;0.46;100.00;93052.22;4996192;28;20054;-76
2023/12/08 05:54:37;;;;;;;13.32;9.80;;;;;;;0.50;100.00;93055.25;4990391;28;20066;-76
2023/12/08 05:57:04;;;;;;;19.83;12.23;;;;;;;0.38;100.00;93039.56;5009054;28;20049;-76
2023/12/08 05:59:31;;;;;;;12.48;8.82;;;;;;;0.64;100.00;93053.88;5004178;28;20065;-76
2023/12/08 06:01:58;;;;;;;19.02;11.38;;;;;;;0.35;100.00;93057.56;4990463;28;20054;-76
2023/12/08 06:04:25;;;;;;;18.08;11.38;;;;;;;0.23;100.00;93045.19;4991065;28;20058;-76
2023/12/08 06:06:53;;;;;;;26.95;14.35;;;;;;;0.53;100.00;93065.06;4996985;28;20057;-77
2023/12/08 06:09:20;;;;;;;11.65;7.68;;;;;;;0.25;100.00;93071.09;4991149;28;20046;-76
2023/12/08 06:11:47;;;;;;;17.13;10.98;;;;;;;0.31;100.00;93079.81;4995794;28;20053;-77
2023/12/08 06:14:14;;;;;;;25.95;14.95;;;;;;;0.44;100.00;93071.81;4992475;28;20053;-77
2023/12/08 06:16:41;;;;;;;50.13;25.55;;;;;;;0.20;100.00;93075.81;4987988;28;20080;-77
2023/12/08 06:19:08;;;;;;;24.98;14.30;;;;;;;0.47;100.00;93075.78;4991902;28;20054;-76
2023/12/08 06:21:35;;;;;;;16.85;11.93;;;;;;;0.74;100.00;93074.78;4990682;28;20070;-76
2023/12/08 06:24:04;;;;;;;13.55;9.93;;;;;;;0.68;100.00;93079.66;4993716;28;20050;-76
2023/12/08 06:26:31;;;;;;;105.40;46.17;;;;;;;0.78;100.00;93073.53;4992834;28;20050;-76
2023/12/08 06:28:58;;;;;;;23.63;13.25;;;;;;;0.56;100.00;93085.00;4990201;28;20480;-76
2023/12/08 06:31:26;;;;;;;33.88;18.38;;;;;;;0.30;100.00;93080.75;4992055;28;20845;-76
2023/12/08 06:33:53;;;;;;;13.15;8.93;;;;;;;-0.10;100.00;93077.03;4991681;28;20156;-76
2023/12/08 06:36:20;;;;;;;11.68;8.48;;;;;;;-0.30;100.00;93078.00;5002892;28;20064;-76
2023/12/08 06:38:46;;;;;;;18.15;12.35;;;;;;;-0.34;100.00;93076.72;4994795;28;20135;-76
2023/12/08 06:41:15;;;;;;;11.80;8.15;;;;;;;-0.50;100.00;93074.88;4989547;28;20050;-76
2023/12/08 06:43:42;;;;;;;12.40;8.85;;;;;;;-0.62;100.00;93081.84;4993694;28;20050;-76
2023/12/08 06:46:09;;;;;;;17.92;12.05;;;;;;;-0.57;100.00;93081.41;4989613;28;20053;-76
2023/12/08 06:48:36;;;;;;;11.50;9.30;;;;;;;-0.56;100.00;93083.00;4993787;28;20046;-76
2023/12/08 06:51:03;;;;;;;10.68;8.43;;;;;;;-0.52;100.00;93076.72;4994536;28;20082;-76
2023/12/08 06:53:30;;;;;;;10.80;8.77;;;;;;;-0.69;100.00;93090.94;4989583;28;20064;-76
2023/12/08 06:55:57;;;;;;;22.75;15.27;;;;;;;-0.66;100.00;93072.97;4990575;28;20141;-76
2023/12/08 06:58:25;;;;;;;11.60;8.13;;;;;;;-0.56;100.00;93083.00;4989363;28;20061;-76
2023/12/08 07:00:53;;;;;;;11.15;8.43;;;;;;;-0.50;100.00;93084.16;4989176;28;20053;-76
2023/12/08 07:03:20;;;;;;;10.45;7.80;;;;;;;-0.68;100.00;93093.28;4989508;28;20056;-76
2023/12/08 07:05:47;;;;;;;10.32;7.57;;;;;;;-0.63;100.00;93090.38;4995187;28;20054;-76
2023/12/08 07:08:14;;;;;;;9.70;7.57;;;;;;;-0.64;100.00;93093.03;4989614;28;20052;-76
2023/12/08 07:10:41;;;;;;;11.32;8.07;;;;;;;-0.50;100.00;93091.72;4990276;28;20050;-76
2023/12/08 07:13:08;;;;;;;9.75;7.40;;;;;;;-0.61;100.00;93098.56;4988954;28;20495;-76
2023/12/08 07:15:36;;;;;;;10.43;8.43;;;;;;;-0.54;100.00;93096.28;4988039;28;20423;-76
2023/12/08 07:18:04;;;;;;;10.82;8.70;;;;;;;-0.51;100.00;93090.91;4995524;28;20180;-76
2023/12/08 07:20:31;;;;;;;13.10;10.07;;;;;;;-0.33;100.00;93090.91;4990481;28;20117;-76
2023/12/08 07:22:58;;;;;;;12.18;8.73;;;;;;;-0.30;100.00;93088.13;4989189;28;20164;-76
2023/12/08 07:25:25;;;;;;;13.57;11.27;;;;;;;-0.21;100.00;93091.50;4988740;28;20141;-76
2023/12/08 07:27:52;;;;;;;13.80;10.55;;;;;;;-0.27;100.00;93092.84;4996981;28;20617;-76
2023/12/08 07:30:19;;;;;;;12.18;10.00;;;;;;;-0.24;100.00;93096.81;4988748;28;20050;-76
2023/12/08 07:32:47;;;;;;;14.07;10.18;;;;;;;-0.37;100.00;93086.31;4989982;28;20060;-76
2023/12/08 07:35:15;;;;;;;16.45;12.98;;;;;;;-0.31;100.00;93089.06;4988710;28;20089;-76
2023/12/08 07:37:42;;;;;;;14.00;10.98;;;;;;;0.11;100.00;93100.22;4990176;28;20057;-76
2023/12/08 07:40:09;;;;;;;13.38;9.88;;;;;;;0.23;100.00;93095.72;5000116;28;20046;-76
2023/12/08 07:42:36;;;;;;;11.02;8.98;;;;;;;0.49;100.00;93099.97;5003644;28;20050;-76
2023/12/08 07:45:04;;;;;;;25.25;18.73;;;;;;;0.08;100.00;93087.09;4993098;28;20054;-77
2023/12/08 07:47:32;;;;;;;14.35;10.60;;;;;;;0.01;100.00;93104.59;4991213;28;20473;-76
2023/12/08 07:50:00;;;;;;;15.45;10.93;;;;;;;-0.12;100.00;93094.88;5002174;28;20562;-76
2023/12/08 07:52:27;;;;;;;16.40;12.07;;;;;;;-0.02;100.00;93082.13;5004309;28;20073;-76
2023/12/08 07:54:54;;;;;;;15.77;12.02;;;;;;;0.19;100.00;93089.38;4996466;28;20046;-76
2023/12/08 07:57:21;;;;;;;18.75;12.80;;;;;;;0.02;100.00;93054.84;4988255;28;20137;-76
2023/12/08 07:59:48;;;;;;;14.20;11.07;;;;;;;0.47;100.00;93090.94;4988097;28;20057;-76
2023/12/08 08:02:15;;;;;;;40.55;29.15;;;;;;;0.36;100.00;93095.31;4988063;28;20046;-76
2023/12/08 08:04:42;;;;;;;15.15;11.80;;;;;;;0.36;100.00;93097.84;4994679;28;20459;-76
2023/12/08 08:07:10;;;;;;;20.30;17.38;;;;;;;0.28;100.00;93089.44;4988100;28;20053;-76
2023/12/08 08:09:37;;;;;;;16.15;13.18;;;;;;;0.32;100.00;93090.72;4988010;28;20042;-76
2023/12/08 08:12:06;;;;;;;13.07;10.73;;;;;;;0.22;100.00;93090.81;4999769;28;20427;-76
2023/12/08 08:14:33;;;;;;;12.52;9.90;;;;;;;0.13;100.00;93090.75;4992269;28;20050;-76
2023/12/08 08:17:01;;;;;;;10.18;7.32;;;;;;;0.01;100.00;93081.84;5004332;28;20100;-76
2023/12/08 08:19:28;;;;;;;11.20;7.78;;;;;;;-0.02;100.00;93080.41;4998612;28;20082;-76
2023/12/08 08:21:55;;;;;;;15.98;12.95;;;;;;;0.02;100.00;93080.91;4997687;28;20522;-76
2023/12/08 08:24:24;;;;;;;12.75;10.70;;;;;;;0.05;100.00;93067.19;4994187;28;20424;-76
2023/12/08 08:26:51;;;;;;;13.00;10.07;;;;;;;0.16;100.00;93066.94;5001700;28;20056;-76
2023/12/08 08:29:17;;;;;;;18.92;14.40;;;;;;;-0.09;100.00;93063.47;5009293;28;20050;-76
2023/12/08 08:31:44;;;;;;;9.20;7.30;;;;;;;-0.19;100.00;93066.88;5001101;28;20057;-76
2023/12/08 08:34:11;;;;;;;7.85;6.40;;;;;;;-0.34;100.00;93022.91;4992965;28;20493;-76
2023/12/08 08:36:38;;;;;;;8.52;7.00;;;;;;;-0.24;100.00;93048.09;4992534;28;20045;-76
2023/12/08 08:39:05;;;;;;;8.88;6.97;;;;;;;-0.20;100.00;93072.06;4991507;28;20043;-76
2023/12/08 08:41:33;;;;;;;9.80;7.35;;;;;;;-0.14;100.00;93063.91;4991351;28;20054;-76
2023/12/08 08:44:00;;;;;;;10.70;7.75;;;;;;;-0.20;100.00;93067.81;4991904;28;20698;-76
2023/12/08 08:46:28;;;;;;;12.98;9.05;;;;;;;-0.14;100.00;93059.66;4991791;28;20090;-76
2023/12/08 08:48:55;;;;;;;15.70;10.50;;;;;;;0.09;100.00;93059.16;4991650;28;20057;-76
2023/12/08 08:51:23;;;;;;;16.35;10.90;;;;;;;0.21;100.00;93057.19;4993344;28;20042;-76
2023/12/08 08:53:50;;;;;;;11.13;8.73;;;;;;;0.23;100.00;93057.81;4991814;28;20519;-77
2023/12/08 08:56:17;;;;;;;8.98;7.55;;;;;;;0.17;100.00;93060.13;5000446;28;20058;-76
2023/12/08 08:58:46;;;;;;;11.27;9.07;;;;;;;0.38;100.00;93060.56;4994772;28;20042;-76
2023/12/08 09:01:12;;;;;;;15.00;12.68;;;;;;;0.38;100.00;93053.00;4994926;28;20427;-76
2023/12/08 09:03:39;;;;;;;12.20;9.98;;;;;;;0.20;100.00;93050.56;4994028;28;20050;-77
2023/12/08 09:06:07;;;;;;;14.30;8.23;;;;;;;0.15;100.00;93049.41;4992649;28;20054;-77
2023/12/08 09:08:33;;;;;;;9.25;7.30;;;;;;;0.07;100.00;93038.31;4992911;28;20056;-76
2023/12/08 09:11:00;;;;;;;8.63;7.68;;;;;;;0.14;100.00;93046.09;4992310;28;20053;-77
2023/12/08 09:13:30;;;;;;;12.00;8.48;;;;;;;0.07;100.00;93045.09;5006766;28;20060;-76
2023/12/08 09:15:59;;;;;;;10.32;8.05;;;;;;;0.04;100.00;93047.94;4996702;28;20056;-77
2023/12/08 09:18:26;;;;;;;11.98;8.55;;;;;;;0.08;100.00;93039.09;4996428;28;20928;-76
2023/12/08 09:20:53;;;;;;;10.75;8.75;;;;;;;0.14;100.00;93038.53;4991836;28;20443;-77
2023/12/08 09:23:20;;;;;;;10.98;9.60;;;;;;;0.24;100.00;93036.66;4993359;28;20046;-76
2023/12/08 09:25:47;;;;;;;10.07;7.78;;;;;;;0.15;100.00;93024.94;4997105;28;20086;-77
2023/12/08 09:28:14;;;;;;;7.55;6.30;;;;;;;0.18;100.00;93032.22;4999896;28;20046;-77
2023/12/08 09:30:42;;;;;;;10.40;7.47;;;;;;;0.05;100.00;93032.63;4991586;28;20053;-77
2023/12/08 09:33:11;;;;;;;7.50;5.47;;;;;;;0.06;100.00;93030.88;4992078;28;20058;-77
2023/12/08 09:35:37;;;;;;;9.93;6.63;;;;;;;0.00;100.00;93024.72;4998323;28;20057;-77
2023/12/08 09:38:05;;;;;;;8.55;6.75;;;;;;;0.13;100.00;93036.91;4992694;28;20050;-77
2023/12/08 09:40:34;;;;;;;11.68;7.50;;;;;;;0.08;100.00;93013.84;4991967;28;20500;-77
2023/12/08 09:43:08;;;;;;;10.35;7.63;;;;;;;0.16;100.00;93013.09;4994926;28;20058;-77
2023/12/08 09:45:36;;;;;;;14.27;8.73;;;;;;;0.26;100.00;93019.63;4999242;28;20054;-77
2023/12/08 09:48:07;;;;;;;12.95;8.60;;;;;;;0.31;100.00;93018.38;4993290;28;20054;-76
2023/12/08 09:50:36;;;;;;;13.45;8.82;;;;;;;0.40;100.00;93014.94;4993047;28;20053;-77
2023/12/08 09:53:04;;;;;;;27.70;15.98;;;;;;;0.72;100.00;93010.13;4992462;28;20538;-77
2023/12/08 09:55:33;;;;;;;23.60;12.65;;;;;;;0.88;100.00;93007.66;4992292;28;20050;-77
2023/12/08 09:58:01;;;;;;;22.80;13.85;;;;;;;0.94;100.00;93008.78;4992579;28;20054;-77
2023/12/08 10:00:32;;;;;;;12.15;9.00;;;;;;;1.08;100.00;93004.03;4991583;28;20054;-77
2023/12/08 10:03:00;;;;;;;24.17;13.98;;;;;;;1.02;100.00;92991.06;4994455;28;20128;-78
2023/12/08 10:05:27;;;;;;;35.97;24.08;;;;;;;1.24;100.00;93000.75;4992499;28;20073;-77
2023/12/08 10:07:57;;;;;;;17.30;12.10;;;;;;;1.04;100.00;93001.84;4993630;28;20579;-78
2023/12/08 10:10:24;;;;;;;19.10;13.70;;;;;;;1.13;100.00;92995.06;4992884;28;20057;-78
2023/12/08 10:12:51;;;;;;;12.35;7.95;;;;;;;1.24;100.00;92990.63;4993511;28;20046;-78
2023/12/08 10:15:19;;;;;;;21.90;13.82;;;;;;;1.24;100.00;92991.41;4992952;28;20483;-78
2023/12/08 10:17:49;;;;;;;12.20;8.43;;;;;;;0.84;100.00;92980.31;4993266;28;20430;-78
2023/12/08 10:20:17;;;;;;;16.33;10.15;;;;;;;0.64;100.00;92986.44;4997277;28;20443;-78
2023/12/08 10:22:47;;;;;;;15.68;8.93;;;;;;;0.70;100.00;92981.69;4991554;28;20129;-78
2023/12/08 10:25:17;;;;;;;16.83;10.93;;;;;;;0.63;100.00;92972.22;4989835;28;20520;-79
2023/12/08 10:27:45;;;;;;;12.90;8.77;;;;;;;0.90;100.00;92969.56;5004689;28;20050;-78
2023/12/08 10:30:14;;;;;;;10.07;7.20;;;;;;;0.82;100.00;92967.03;4991790;28;20383;-79
2023/12/08 10:32:42;;;;;;;7.40;5.93;;;;;;;0.97;100.00;92970.50;4993004;28;20128;-78
2023/12/08 10:35:11;;;;;;;31.92;16.83;;;;;;;0.88;100.00;92954.53;4997775;28;20046;-78
2023/12/08 10:37:39;;;;;;;12.57;7.72;;;;;;;0.85;100.00;92962.47;4989775;28;20141;-78
2023/12/08 10:40:08;;;;;;;15.75;10.35;;;;;;;0.95;100.00;92964.03;4993017;28;20049;-78
2023/12/08 10:42:37;;;;;;;10.88;7.65;;;;;;;0.93;100.00;92959.16;4990422;28;20057;-78
2023/12/08 10:45:10;;;;;;;21.73;11.23;;;;;;;0.71;100.00;92928.47;4991958;28;20112;-78
2023/12/08 10:47:39;;;;;;;10.52;7.25;;;;;;;0.79;100.00;92946.16;4991750;28;20073;-78
2023/12/08 10:50:08;;;;;;;10.40;7.32;;;;;;;0.87;100.00;92947.91;4990167;28;20471;-79
2023/12/08 10:52:37;;;;;;;31.75;12.65;;;;;;;1.04;100.00;92951.25;4991193;28;20046;-78
2023/12/08 10:55:06;;;;;;;17.13;10.07;;;;;;;0.85;100.00;92946.47;4992543;28;20061;-78
2023/12/08 10:57:33;;;;;;;11.50;8.32;;;;;;;0.81;100.00;92943.47;4990048;28;20076;-78
2023/12/08 11:00:11;;;;;;;20.30;12.35;;;;;;;0.74;100.00;92937.47;4991410;28;20167;-78
2023/12/08 11:02:41;;;;;;;11.82;9.68;;;;;;;0.97;100.00;92945.22;4990690;28;20053;-78
2023/12/08 11:05:11;;;;;;;9.98;7.68;;;;;;;1.12;100.00;92942.06;4992765;28;20053;-77
2023/12/08 11:07:39;;;;;;;9.43;7.95;;;;;;;1.32;100.00;92948.41;4993026;28;20535;-77
2023/12/08 11:10:08;;;;;;;12.10;8.23;;;;;;;1.29;100.00;92948.72;4991104;28;20249;-78
2023/12/08 11:12:43;;;;;;;10.40;8.07;;;;;;;1.44;100.00;92953.91;4990944;28;20412;-78
2023/12/08 11:15:17;;;;;;;8.57;7.55;;;;;;;1.44;100.00;92951.38;4998744;28;20504;-78
2023/12/08 11:17:50;;;;;;;10.75;6.57;;;;;;;1.08;100.00;92945.88;4988313;28;20131;-78
2023/12/08 11:20:18;;;;;;;9.52;7.57;;;;;;;1.34;100.00;92950.75;4994360;28;20064;-78
2023/12/08 11:22:46;;;;;;;6.55;5.10;;;;;;;1.10;100.00;92944.75;4989791;28;20629;-79
2023/12/08 11:25:19;;;;;;;7.22;6.13;;;;;;;1.19;100.00;92945.53;4989522;28;20049;-78